sensor_id;sensor_type;location;lat;lon;timestamp;P1;durP1;ratioP1;P2;durP2;ratioP2
53261;SDS011;39658;51.090;-1.786;2024-03-17T00:01:00;21.65;;;5.93;;
53261;SDS011;39658;51.090;-1.786;2024-03-17T00:03:28;18.17;;;5.45;;
53261;SDS011;39658;51.090;-1.786;2024-03-17T00:05:57;19.77;;;5.45;;
53261;SDS011;39658;51.090;-1.786;2024-03-17T00:08:24;13.50;;;4.22;;
53261;SDS011;39658;51.090;-1.786;2024-03-17T00:10:50;20.17;;;4.03;;
53261;SDS011;39658;51.090;-1.786;2024-03-17T00:13:19;14.02;;;4.93;;
53261;SDS011;39658;51.090;-1.786;2024-03-17T00:15:46;22.45;;;3.95;;
53261;SDS011;39658;51.090;-1.786;2024-03-17T00:18:12;20.15;;;3.60;;
53261;SDS011;39658;51.090;-1.786;2024-03-17T00:20:39;19.63;;;4.55;;
53261;SDS011;39658;51.090;-1.786;2024-03-17T00:23:05;16.05;;;3.92;;
53261;SDS011;39658;51.090;-1.786;2024-03-17T00:25:34;24.52;;;4.28;;
53261;SDS011;39658;51.090;-1.786;2024-03-17T00:28:00;18.08;;;4.38;;
53261;SDS011;39658;51.090;-1.786;2024-03-17T00:30:28;25.08;;;5.68;;
53261;SDS011;39658;51.090;-1.786;2024-03-17T00:32:54;16.73;;;5.00;;
53261;SDS011;39658;51.090;-1.786;2024-03-17T00:35:23;28.20;;;5.32;;
53261;SDS011;39658;51.090;-1.786;2024-03-17T00:37:50;18.92;;;4.72;;
53261;SDS011;39658;51.090;-1.786;2024-03-17T00:40:16;18.13;;;5.03;;
53261;SDS011;39658;51.090;-1.786;2024-03-17T00:42:44;23.42;;;6.28;;
53261;SDS011;39658;51.090;-1.786;2024-03-17T00:45:10;17.60;;;5.45;;
53261;SDS011;39658;51.090;-1.786;2024-03-17T00:47:39;19.85;;;5.88;;
53261;SDS011;39658;51.090;-1.786;2024-03-17T00:50:05;29.88;;;6.25;;
53261;SDS011;39658;51.090;-1.786;2024-03-17T00:52:33;19.40;;;5.65;;
53261;SDS011;39658;51.090;-1.786;2024-03-17T00:54:59;21.83;;;6.25;;
53261;SDS011;39658;51.090;-1.786;2024-03-17T00:57:26;33.60;;;6.47;;
53261;SDS011;39658;51.090;-1.786;2024-03-17T00:59:51;26.02;;;5.50;;
53261;SDS011;39658;51.090;-1.786;2024-03-17T01:02:18;32.63;;;6.28;;
53261;SDS011;39658;51.090;-1.786;2024-03-17T01:04:47;26.67;;;5.60;;
53261;SDS011;39658;51.090;-1.786;2024-03-17T01:07:14;23.17;;;5.90;;
53261;SDS011;39658;51.090;-1.786;2024-03-17T01:09:39;21.08;;;5.65;;
53261;SDS011;39658;51.090;-1.786;2024-03-17T01:12:06;20.60;;;5.70;;
53261;SDS011;39658;51.090;-1.786;2024-03-17T01:14:32;21.60;;;5.88;;
53261;SDS011;39658;51.090;-1.786;2024-03-17T01:16:59;23.48;;;6.07;;
53261;SDS011;39658;51.090;-1.786;2024-03-17T01:19:25;25.52;;;5.70;;
53261;SDS011;39658;51.090;-1.786;2024-03-17T01:21:54;22.30;;;5.82;;
53261;SDS011;39658;51.090;-1.786;2024-03-17T01:24:19;16.33;;;5.45;;
53261;SDS011;39658;51.090;-1.786;2024-03-17T01:26:46;25.52;;;6.72;;
53261;SDS011;39658;51.090;-1.786;2024-03-17T01:29:12;26.23;;;6.43;;
53261;SDS011;39658;51.090;-1.786;2024-03-17T01:31:39;24.42;;;5.85;;
53261;SDS011;39658;51.090;-1.786;2024-03-17T01:34:05;21.40;;;6.03;;
53261;SDS011;39658;51.090;-1.786;2024-03-17T01:36:31;19.98;;;5.25;;
53261;SDS011;39658;51.090;-1.786;2024-03-17T01:38:59;17.20;;;5.63;;
53261;SDS011;39658;51.090;-1.786;2024-03-17T01:41:27;22.35;;;6.47;;
53261;SDS011;39658;51.090;-1.786;2024-03-17T01:43:53;21.38;;;4.97;;
53261;SDS011;39658;51.090;-1.786;2024-03-17T01:46:19;16.25;;;4.05;;
53261;SDS011;39658;51.090;-1.786;2024-03-17T01:48:45;19.65;;;4.78;;
53261;SDS011;39658;51.090;-1.786;2024-03-17T01:51:12;15.27;;;4.65;;
53261;SDS011;39658;51.090;-1.786;2024-03-17T01:53:40;19.85;;;4.68;;
53261;SDS011;39658;51.090;-1.786;2024-03-17T01:56:10;15.75;;;5.45;;
53261;SDS011;39658;51.090;-1.786;2024-03-17T01:58:36;21.63;;;4.13;;
53261;SDS011;39658;51.090;-1.786;2024-03-17T02:01:04;29.50;;;5.07;;
53261;SDS011;39658;51.090;-1.786;2024-03-17T02:03:29;19.48;;;4.68;;
53261;SDS011;39658;51.090;-1.786;2024-03-17T02:05:56;17.35;;;4.45;;
53261;SDS011;39658;51.090;-1.786;2024-03-17T02:08:22;16.40;;;4.60;;
53261;SDS011;39658;51.090;-1.786;2024-03-17T02:10:52;20.40;;;4.15;;
53261;SDS011;39658;51.090;-1.786;2024-03-17T02:13:19;12.30;;;3.05;;
53261;SDS011;39658;51.090;-1.786;2024-03-17T02:15:47;19.55;;;4.03;;
53261;SDS011;39658;51.090;-1.786;2024-03-17T02:18:12;24.88;;;3.92;;
53261;SDS011;39658;51.090;-1.786;2024-03-17T02:20:40;19.48;;;3.30;;
53261;SDS011;39658;51.090;-1.786;2024-03-17T02:23:22;27.67;;;4.72;;
53261;SDS011;39658;51.090;-1.786;2024-03-17T02:25:51;22.52;;;3.58;;
53261;SDS011;39658;51.090;-1.786;2024-03-17T02:28:17;16.23;;;3.60;;
53261;SDS011;39658;51.090;-1.786;2024-03-17T02:30:44;23.23;;;4.15;;
53261;SDS011;39658;51.090;-1.786;2024-03-17T02:33:09;29.55;;;4.03;;
53261;SDS011;39658;51.090;-1.786;2024-03-17T02:35:36;13.82;;;3.75;;
53261;SDS011;39658;51.090;-1.786;2024-03-17T02:38:02;15.75;;;4.18;;
53261;SDS011;39658;51.090;-1.786;2024-03-17T02:40:31;18.90;;;3.67;;
53261;SDS011;39658;51.090;-1.786;2024-03-17T02:42:56;13.40;;;3.42;;
53261;SDS011;39658;51.090;-1.786;2024-03-17T02:45:23;14.98;;;2.67;;
53261;SDS011;39658;51.090;-1.786;2024-03-17T02:47:50;23.95;;;4.13;;
53261;SDS011;39658;51.090;-1.786;2024-03-17T02:50:16;13.85;;;3.33;;
53261;SDS011;39658;51.090;-1.786;2024-03-17T02:52:43;19.50;;;3.72;;
53261;SDS011;39658;51.090;-1.786;2024-03-17T02:55:10;14.55;;;3.58;;
53261;SDS011;39658;51.090;-1.786;2024-03-17T02:57:38;9.23;;;3.50;;
53261;SDS011;39658;51.090;-1.786;2024-03-17T03:00:06;18.42;;;3.05;;
53261;SDS011;39658;51.090;-1.786;2024-03-17T03:02:38;18.27;;;3.83;;
53261;SDS011;39658;51.090;-1.786;2024-03-17T03:05:05;15.77;;;3.47;;
53261;SDS011;39658;51.090;-1.786;2024-03-17T03:07:32;19.20;;;3.95;;
53261;SDS011;39658;51.090;-1.786;2024-03-17T03:09:58;17.73;;;4.30;;
53261;SDS011;39658;51.090;-1.786;2024-03-17T03:12:25;20.98;;;3.70;;
53261;SDS011;39658;51.090;-1.786;2024-03-17T03:14:53;17.90;;;4.38;;
53261;SDS011;39658;51.090;-1.786;2024-03-17T03:17:20;10.90;;;3.55;;
53261;SDS011;39658;51.090;-1.786;2024-03-17T03:19:46;17.58;;;4.80;;
53261;SDS011;39658;51.090;-1.786;2024-03-17T03:22:13;21.85;;;3.33;;
53261;SDS011;39658;51.090;-1.786;2024-03-17T03:24:40;18.45;;;3.90;;
53261;SDS011;39658;51.090;-1.786;2024-03-17T03:27:07;18.92;;;4.50;;
53261;SDS011;39658;51.090;-1.786;2024-03-17T03:29:34;20.58;;;3.95;;
53261;SDS011;39658;51.090;-1.786;2024-03-17T03:32:02;11.93;;;3.20;;
53261;SDS011;39658;51.090;-1.786;2024-03-17T03:34:29;19.42;;;3.97;;
53261;SDS011;39658;51.090;-1.786;2024-03-17T03:36:55;15.07;;;3.78;;
53261;SDS011;39658;51.090;-1.786;2024-03-17T03:39:22;22.30;;;4.00;;
53261;SDS011;39658;51.090;-1.786;2024-03-17T03:41:50;13.00;;;3.45;;
53261;SDS011;39658;51.090;-1.786;2024-03-17T03:44:17;25.48;;;3.78;;
53261;SDS011;39658;51.090;-1.786;2024-03-17T03:46:44;17.20;;;2.95;;
53261;SDS011;39658;51.090;-1.786;2024-03-17T03:49:13;16.23;;;4.28;;
53261;SDS011;39658;51.090;-1.786;2024-03-17T03:51:39;23.83;;;4.03;;
53261;SDS011;39658;51.090;-1.786;2024-03-17T03:54:06;13.57;;;3.83;;
53261;SDS011;39658;51.090;-1.786;2024-03-17T03:56:33;14.23;;;3.55;;
53261;SDS011;39658;51.090;-1.786;2024-03-17T03:58:59;15.95;;;3.20;;
53261;SDS011;39658;51.090;-1.786;2024-03-17T04:01:26;12.65;;;3.28;;
53261;SDS011;39658;51.090;-1.786;2024-03-17T04:03:53;11.50;;;2.97;;
53261;SDS011;39658;51.090;-1.786;2024-03-17T04:06:21;24.98;;;4.00;;
53261;SDS011;39658;51.090;-1.786;2024-03-17T04:08:48;12.18;;;4.18;;
53261;SDS011;39658;51.090;-1.786;2024-03-17T04:11:14;15.23;;;3.58;;
53261;SDS011;39658;51.090;-1.786;2024-03-17T04:13:41;16.63;;;4.20;;
53261;SDS011;39658;51.090;-1.786;2024-03-17T04:16:08;14.32;;;4.30;;
53261;SDS011;39658;51.090;-1.786;2024-03-17T04:18:35;19.95;;;4.88;;
53261;SDS011;39658;51.090;-1.786;2024-03-17T04:21:03;14.57;;;4.78;;
53261;SDS011;39658;51.090;-1.786;2024-03-17T04:23:33;16.17;;;4.20;;
53261;SDS011;39658;51.090;-1.786;2024-03-17T04:26:00;16.52;;;4.88;;
53261;SDS011;39658;51.090;-1.786;2024-03-17T04:28:28;19.90;;;4.85;;
53261;SDS011;39658;51.090;-1.786;2024-03-17T04:31:02;20.00;;;4.82;;
53261;SDS011;39658;51.090;-1.786;2024-03-17T04:33:30;20.67;;;4.97;;
53261;SDS011;39658;51.090;-1.786;2024-03-17T04:35:57;17.48;;;5.30;;
53261;SDS011;39658;51.090;-1.786;2024-03-17T04:38:24;16.20;;;4.93;;
53261;SDS011;39658;51.090;-1.786;2024-03-17T04:40:52;15.13;;;4.60;;
53261;SDS011;39658;51.090;-1.786;2024-03-17T04:43:28;24.65;;;5.20;;
53261;SDS011;39658;51.090;-1.786;2024-03-17T04:46:00;19.80;;;5.13;;
53261;SDS011;39658;51.090;-1.786;2024-03-17T04:48:29;14.95;;;5.28;;
53261;SDS011;39658;51.090;-1.786;2024-03-17T04:50:56;18.85;;;5.22;;
53261;SDS011;39658;51.090;-1.786;2024-03-17T04:53:22;26.65;;;5.97;;
53261;SDS011;39658;51.090;-1.786;2024-03-17T04:55:58;15.55;;;4.90;;
53261;SDS011;39658;51.090;-1.786;2024-03-17T04:58:26;13.68;;;4.88;;
53261;SDS011;39658;51.090;-1.786;2024-03-17T05:00:52;19.75;;;4.60;;
53261;SDS011;39658;51.090;-1.786;2024-03-17T05:03:19;23.40;;;4.45;;
53261;SDS011;39658;51.090;-1.786;2024-03-17T05:05:46;16.60;;;3.42;;
53261;SDS011;39658;51.090;-1.786;2024-03-17T05:08:12;18.00;;;4.25;;
53261;SDS011;39658;51.090;-1.786;2024-03-17T05:10:39;15.95;;;4.95;;
53261;SDS011;39658;51.090;-1.786;2024-03-17T05:13:07;18.88;;;4.68;;
53261;SDS011;39658;51.090;-1.786;2024-03-17T05:15:36;12.15;;;4.15;;
53261;SDS011;39658;51.090;-1.786;2024-03-17T05:18:03;18.98;;;5.20;;
53261;SDS011;39658;51.090;-1.786;2024-03-17T05:20:30;14.30;;;4.15;;
53261;SDS011;39658;51.090;-1.786;2024-03-17T05:22:57;18.52;;;4.47;;
53261;SDS011;39658;51.090;-1.786;2024-03-17T05:25:24;14.73;;;3.08;;
53261;SDS011;39658;51.090;-1.786;2024-03-17T05:27:50;17.92;;;3.60;;
53261;SDS011;39658;51.090;-1.786;2024-03-17T05:30:18;13.90;;;4.18;;
53261;SDS011;39658;51.090;-1.786;2024-03-17T05:32:45;15.00;;;2.80;;
53261;SDS011;39658;51.090;-1.786;2024-03-17T05:35:12;12.95;;;2.92;;
53261;SDS011;39658;51.090;-1.786;2024-03-17T05:37:39;10.90;;;4.22;;
53261;SDS011;39658;51.090;-1.786;2024-03-17T05:40:06;11.70;;;3.22;;
53261;SDS011;39658;51.090;-1.786;2024-03-17T05:42:37;10.05;;;3.13;;
53261;SDS011;39658;51.090;-1.786;2024-03-17T05:45:04;8.35;;;2.38;;
53261;SDS011;39658;51.090;-1.786;2024-03-17T05:47:37;8.60;;;2.67;;
53261;SDS011;39658;51.090;-1.786;2024-03-17T05:50:04;7.75;;;2.70;;
53261;SDS011;39658;51.090;-1.786;2024-03-17T05:52:31;8.68;;;2.55;;
53261;SDS011;39658;51.090;-1.786;2024-03-17T05:54:58;14.65;;;2.35;;
53261;SDS011;39658;51.090;-1.786;2024-03-17T05:57:24;7.47;;;2.63;;
53261;SDS011;39658;51.090;-1.786;2024-03-17T05:59:51;10.82;;;2.53;;
53261;SDS011;39658;51.090;-1.786;2024-03-17T06:02:18;11.43;;;3.33;;
53261;SDS011;39658;51.090;-1.786;2024-03-17T06:04:46;9.13;;;2.65;;
53261;SDS011;39658;51.090;-1.786;2024-03-17T06:07:13;16.77;;;3.17;;
53261;SDS011;39658;51.090;-1.786;2024-03-17T06:09:39;10.15;;;2.67;;
53261;SDS011;39658;51.090;-1.786;2024-03-17T06:12:06;10.38;;;3.30;;
53261;SDS011;39658;51.090;-1.786;2024-03-17T06:14:33;12.57;;;2.75;;
53261;SDS011;39658;51.090;-1.786;2024-03-17T06:17:00;7.65;;;2.28;;
53261;SDS011;39658;51.090;-1.786;2024-03-17T06:19:27;8.18;;;2.63;;
53261;SDS011;39658;51.090;-1.786;2024-03-17T06:21:55;8.25;;;2.33;;
53261;SDS011;39658;51.090;-1.786;2024-03-17T06:24:23;10.77;;;2.17;;
53261;SDS011;39658;51.090;-1.786;2024-03-17T06:26:50;11.95;;;2.88;;
53261;SDS011;39658;51.090;-1.786;2024-03-17T06:29:17;11.73;;;2.45;;
53261;SDS011;39658;51.090;-1.786;2024-03-17T06:31:45;8.02;;;1.77;;
53261;SDS011;39658;51.090;-1.786;2024-03-17T06:34:12;6.43;;;1.80;;
53261;SDS011;39658;51.090;-1.786;2024-03-17T06:36:40;7.53;;;2.28;;
53261;SDS011;39658;51.090;-1.786;2024-03-17T06:39:09;6.88;;;2.30;;
53261;SDS011;39658;51.090;-1.786;2024-03-17T06:41:41;6.40;;;1.70;;
53261;SDS011;39658;51.090;-1.786;2024-03-17T06:44:07;4.25;;;1.25;;
53261;SDS011;39658;51.090;-1.786;2024-03-17T06:46:34;6.78;;;1.45;;
53261;SDS011;39658;51.090;-1.786;2024-03-17T06:49:01;9.95;;;2.03;;
53261;SDS011;39658;51.090;-1.786;2024-03-17T06:51:28;6.10;;;1.30;;
53261;SDS011;39658;51.090;-1.786;2024-03-17T06:53:54;5.90;;;1.30;;
53261;SDS011;39658;51.090;-1.786;2024-03-17T06:56:23;5.07;;;1.27;;
53261;SDS011;39658;51.090;-1.786;2024-03-17T06:58:50;7.70;;;1.38;;
53261;SDS011;39658;51.090;-1.786;2024-03-17T07:01:17;4.60;;;1.30;;
53261;SDS011;39658;51.090;-1.786;2024-03-17T07:03:44;5.05;;;1.73;;
53261;SDS011;39658;51.090;-1.786;2024-03-17T07:06:11;6.75;;;2.00;;
53261;SDS011;39658;51.090;-1.786;2024-03-17T07:08:38;4.57;;;1.50;;
53261;SDS011;39658;51.090;-1.786;2024-03-17T07:11:05;6.13;;;1.58;;
53261;SDS011;39658;51.090;-1.786;2024-03-17T07:13:34;6.95;;;1.30;;
53261;SDS011;39658;51.090;-1.786;2024-03-17T07:16:02;5.43;;;1.35;;
53261;SDS011;39658;51.090;-1.786;2024-03-17T07:18:31;8.85;;;2.22;;
53261;SDS011;39658;51.090;-1.786;2024-03-17T07:20:59;5.78;;;1.10;;
53261;SDS011;39658;51.090;-1.786;2024-03-17T07:23:27;4.30;;;1.27;;
53261;SDS011;39658;51.090;-1.786;2024-03-17T07:25:54;5.75;;;1.42;;
53261;SDS011;39658;51.090;-1.786;2024-03-17T07:28:22;7.38;;;1.30;;
53261;SDS011;39658;51.090;-1.786;2024-03-17T07:30:51;4.15;;;1.20;;
53261;SDS011;39658;51.090;-1.786;2024-03-17T07:33:21;5.72;;;1.60;;
53261;SDS011;39658;51.090;-1.786;2024-03-17T07:35:49;7.10;;;1.63;;
53261;SDS011;39658;51.090;-1.786;2024-03-17T07:38:16;4.45;;;1.67;;
53261;SDS011;39658;51.090;-1.786;2024-03-17T07:40:44;3.92;;;1.20;;
53261;SDS011;39658;51.090;-1.786;2024-03-17T07:43:12;6.45;;;1.42;;
53261;SDS011;39658;51.090;-1.786;2024-03-17T07:45:39;4.75;;;1.60;;
53261;SDS011;39658;51.090;-1.786;2024-03-17T07:48:09;5.78;;;1.70;;
53261;SDS011;39658;51.090;-1.786;2024-03-17T07:50:36;2.08;;;0.73;;
53261;SDS011;39658;51.090;-1.786;2024-03-17T07:53:02;7.53;;;1.05;;
53261;SDS011;39658;51.090;-1.786;2024-03-17T07:55:29;4.55;;;1.30;;
53261;SDS011;39658;51.090;-1.786;2024-03-17T07:57:56;6.25;;;1.90;;
53261;SDS011;39658;51.090;-1.786;2024-03-17T08:00:23;6.50;;;1.77;;
53261;SDS011;39658;51.090;-1.786;2024-03-17T08:02:50;5.47;;;1.35;;
53261;SDS011;39658;51.090;-1.786;2024-03-17T08:05:18;4.13;;;1.50;;
53261;SDS011;39658;51.090;-1.786;2024-03-17T08:07:45;7.68;;;2.55;;
53261;SDS011;39658;51.090;-1.786;2024-03-17T08:10:12;9.50;;;2.40;;
53261;SDS011;39658;51.090;-1.786;2024-03-17T08:12:39;10.27;;;2.45;;
53261;SDS011;39658;51.090;-1.786;2024-03-17T08:15:06;4.97;;;1.80;;
53261;SDS011;39658;51.090;-1.786;2024-03-17T08:17:33;9.85;;;2.63;;
53261;SDS011;39658;51.090;-1.786;2024-03-17T08:20:00;7.45;;;2.22;;
53261;SDS011;39658;51.090;-1.786;2024-03-17T08:22:28;7.78;;;2.08;;
53261;SDS011;39658;51.090;-1.786;2024-03-17T08:24:55;7.80;;;2.30;;
53261;SDS011;39658;51.090;-1.786;2024-03-17T08:27:22;12.90;;;2.35;;
53261;SDS011;39658;51.090;-1.786;2024-03-17T08:29:49;7.80;;;2.00;;
53261;SDS011;39658;51.090;-1.786;2024-03-17T08:32:15;8.18;;;2.03;;
53261;SDS011;39658;51.090;-1.786;2024-03-17T08:34:45;12.05;;;2.30;;
53261;SDS011;39658;51.090;-1.786;2024-03-17T08:37:13;7.70;;;2.17;;
53261;SDS011;39658;51.090;-1.786;2024-03-17T08:39:41;5.43;;;2.35;;
53261;SDS011;39658;51.090;-1.786;2024-03-17T08:42:08;6.03;;;1.65;;
53261;SDS011;39658;51.090;-1.786;2024-03-17T08:44:35;4.63;;;1.80;;
53261;SDS011;39658;51.090;-1.786;2024-03-17T08:47:01;8.73;;;2.15;;
53261;SDS011;39658;51.090;-1.786;2024-03-17T08:49:29;7.18;;;2.03;;
53261;SDS011;39658;51.090;-1.786;2024-03-17T08:51:55;6.45;;;2.08;;
53261;SDS011;39658;51.090;-1.786;2024-03-17T08:54:22;6.90;;;1.90;;
53261;SDS011;39658;51.090;-1.786;2024-03-17T08:56:50;7.03;;;1.52;;
53261;SDS011;39658;51.090;-1.786;2024-03-17T08:59:17;3.63;;;1.30;;
53261;SDS011;39658;51.090;-1.786;2024-03-17T09:01:43;8.32;;;2.22;;
53261;SDS011;39658;51.090;-1.786;2024-03-17T09:04:10;5.70;;;1.80;;
53261;SDS011;39658;51.090;-1.786;2024-03-17T09:06:38;9.68;;;2.83;;
53261;SDS011;39658;51.090;-1.786;2024-03-17T09:09:05;11.88;;;2.47;;
53261;SDS011;39658;51.090;-1.786;2024-03-17T09:11:33;8.25;;;2.17;;
53261;SDS011;39658;51.090;-1.786;2024-03-17T09:14:01;10.55;;;2.88;;
53261;SDS011;39658;51.090;-1.786;2024-03-17T09:16:28;10.15;;;3.08;;
53261;SDS011;39658;51.090;-1.786;2024-03-17T09:18:55;9.10;;;2.63;;
53261;SDS011;39658;51.090;-1.786;2024-03-17T09:21:22;12.07;;;3.80;;
53261;SDS011;39658;51.090;-1.786;2024-03-17T09:23:49;13.20;;;2.55;;
53261;SDS011;39658;51.090;-1.786;2024-03-17T09:26:16;12.90;;;3.28;;
53261;SDS011;39658;51.090;-1.786;2024-03-17T09:28:43;8.35;;;2.63;;
53261;SDS011;39658;51.090;-1.786;2024-03-17T09:31:11;14.70;;;3.83;;
53261;SDS011;39658;51.090;-1.786;2024-03-17T09:33:38;6.22;;;1.90;;
53261;SDS011;39658;51.090;-1.786;2024-03-17T09:36:06;7.95;;;3.38;;
53261;SDS011;39658;51.090;-1.786;2024-03-17T09:38:34;11.90;;;3.42;;
53261;SDS011;39658;51.090;-1.786;2024-03-17T09:41:02;20.85;;;4.28;;
53261;SDS011;39658;51.090;-1.786;2024-03-17T09:43:30;9.23;;;3.40;;
53261;SDS011;39658;51.090;-1.786;2024-03-17T09:45:59;13.18;;;3.15;;
53261;SDS011;39658;51.090;-1.786;2024-03-17T09:48:29;10.68;;;3.72;;
53261;SDS011;39658;51.090;-1.786;2024-03-17T09:50:57;10.93;;;3.60;;
53261;SDS011;39658;51.090;-1.786;2024-03-17T09:53:25;7.55;;;3.15;;
53261;SDS011;39658;51.090;-1.786;2024-03-17T09:55:52;10.88;;;2.58;;
53261;SDS011;39658;51.090;-1.786;2024-03-17T09:58:23;8.73;;;3.13;;
53261;SDS011;39658;51.090;-1.786;2024-03-17T10:00:49;6.43;;;2.47;;
53261;SDS011;39658;51.090;-1.786;2024-03-17T10:06:16;9.13;;;2.72;;
53261;SDS011;39658;51.090;-1.786;2024-03-17T10:08:45;13.23;;;3.78;;
53261;SDS011;39658;51.090;-1.786;2024-03-17T10:11:13;12.05;;;3.58;;
53261;SDS011;39658;51.090;-1.786;2024-03-17T10:13:41;8.45;;;3.20;;
53261;SDS011;39658;51.090;-1.786;2024-03-17T10:16:17;8.98;;;2.92;;
53261;SDS011;39658;51.090;-1.786;2024-03-17T10:18:49;9.07;;;3.05;;
53261;SDS011;39658;51.090;-1.786;2024-03-17T10:21:24;9.05;;;2.53;;
53261;SDS011;39658;51.090;-1.786;2024-03-17T10:24:06;6.68;;;2.13;;
53261;SDS011;39658;51.090;-1.786;2024-03-17T10:26:37;9.35;;;2.60;;
53261;SDS011;39658;51.090;-1.786;2024-03-17T10:29:14;10.32;;;2.22;;
53261;SDS011;39658;51.090;-1.786;2024-03-17T10:31:48;5.05;;;2.22;;
53261;SDS011;39658;51.090;-1.786;2024-03-17T10:34:16;6.35;;;2.13;;
53261;SDS011;39658;51.090;-1.786;2024-03-17T10:36:43;6.53;;;2.05;;
53261;SDS011;39658;51.090;-1.786;2024-03-17T10:39:17;6.30;;;2.10;;
53261;SDS011;39658;51.090;-1.786;2024-03-17T10:41:54;5.32;;;1.63;;
53261;SDS011;39658;51.090;-1.786;2024-03-17T10:44:23;6.50;;;2.10;;
53261;SDS011;39658;51.090;-1.786;2024-03-17T10:46:50;3.47;;;1.38;;
53261;SDS011;39658;51.090;-1.786;2024-03-17T10:49:23;3.63;;;1.05;;
53261;SDS011;39658;51.090;-1.786;2024-03-17T10:51:57;5.45;;;1.20;;
53261;SDS011;39658;51.090;-1.786;2024-03-17T10:54:24;3.55;;;0.98;;
53261;SDS011;39658;51.090;-1.786;2024-03-17T10:56:53;3.55;;;1.08;;
53261;SDS011;39658;51.090;-1.786;2024-03-17T10:59:22;2.65;;;1.08;;
53261;SDS011;39658;51.090;-1.786;2024-03-17T11:02:00;4.28;;;1.10;;
53261;SDS011;39658;51.090;-1.786;2024-03-17T11:04:29;3.55;;;0.77;;
53261;SDS011;39658;51.090;-1.786;2024-03-17T11:06:56;2.58;;;0.90;;
53261;SDS011;39658;51.090;-1.786;2024-03-17T11:09:25;2.72;;;0.85;;
53261;SDS011;39658;51.090;-1.786;2024-03-17T11:11:53;3.65;;;1.10;;
53261;SDS011;39658;51.090;-1.786;2024-03-17T11:14:20;2.58;;;1.00;;
53261;SDS011;39658;51.090;-1.786;2024-03-17T11:16:47;2.92;;;0.90;;
53261;SDS011;39658;51.090;-1.786;2024-03-17T11:19:15;2.15;;;0.70;;
53261;SDS011;39658;51.090;-1.786;2024-03-17T11:21:44;3.88;;;1.10;;
53261;SDS011;39658;51.090;-1.786;2024-03-17T11:24:20;1.95;;;0.80;;
53261;SDS011;39658;51.090;-1.786;2024-03-17T11:26:48;3.13;;;0.98;;
53261;SDS011;39658;51.090;-1.786;2024-03-17T11:29:27;6.07;;;1.25;;
53261;SDS011;39658;51.090;-1.786;2024-03-17T11:31:54;5.38;;;1.95;;
53261;SDS011;39658;51.090;-1.786;2024-03-17T11:34:35;2.63;;;1.02;;
53261;SDS011;39658;51.090;-1.786;2024-03-17T11:37:03;2.65;;;0.98;;
53261;SDS011;39658;51.090;-1.786;2024-03-17T11:39:49;2.75;;;0.95;;
53261;SDS011;39658;51.090;-1.786;2024-03-17T11:42:21;2.33;;;0.80;;
53261;SDS011;39658;51.090;-1.786;2024-03-17T11:44:59;1.75;;;0.75;;
53261;SDS011;39658;51.090;-1.786;2024-03-17T11:47:39;1.88;;;0.63;;
53261;SDS011;39658;51.090;-1.786;2024-03-17T11:50:08;1.77;;;0.70;;
53261;SDS011;39658;51.090;-1.786;2024-03-17T11:52:37;2.95;;;1.00;;
53261;SDS011;39658;51.090;-1.786;2024-03-17T11:55:15;4.00;;;0.90;;
53261;SDS011;39658;51.090;-1.786;2024-03-17T11:57:41;2.33;;;0.65;;
53261;SDS011;39658;51.090;-1.786;2024-03-17T12:00:18;1.02;;;0.40;;
53261;SDS011;39658;51.090;-1.786;2024-03-17T12:02:47;2.50;;;1.05;;
53261;SDS011;39658;51.090;-1.786;2024-03-17T12:05:14;2.00;;;0.80;;
53261;SDS011;39658;51.090;-1.786;2024-03-17T12:07:43;1.60;;;0.95;;
53261;SDS011;39658;51.090;-1.786;2024-03-17T12:10:10;4.18;;;1.40;;
53261;SDS011;39658;51.090;-1.786;2024-03-17T12:12:38;2.28;;;1.10;;
53261;SDS011;39658;51.090;-1.786;2024-03-17T12:15:13;3.10;;;0.93;;
53261;SDS011;39658;51.090;-1.786;2024-03-17T12:17:42;2.58;;;0.63;;
53261;SDS011;39658;51.090;-1.786;2024-03-17T12:20:14;4.13;;;0.90;;
53261;SDS011;39658;51.090;-1.786;2024-03-17T12:22:44;5.30;;;1.10;;
53261;SDS011;39658;51.090;-1.786;2024-03-17T12:25:16;3.40;;;1.10;;
53261;SDS011;39658;51.090;-1.786;2024-03-17T12:27:43;2.33;;;1.20;;
53261;SDS011;39658;51.090;-1.786;2024-03-17T12:30:11;2.20;;;0.70;;
53261;SDS011;39658;51.090;-1.786;2024-03-17T12:32:38;1.15;;;0.40;;
53261;SDS011;39658;51.090;-1.786;2024-03-17T12:35:09;2.95;;;1.00;;
53261;SDS011;39658;51.090;-1.786;2024-03-17T12:37:38;2.75;;;0.85;;
53261;SDS011;39658;51.090;-1.786;2024-03-17T12:40:08;2.58;;;1.02;;
53261;SDS011;39658;51.090;-1.786;2024-03-17T12:42:46;1.95;;;0.77;;
53261;SDS011;39658;51.090;-1.786;2024-03-17T12:45:14;3.22;;;0.68;;
53261;SDS011;39658;51.090;-1.786;2024-03-17T12:47:46;1.73;;;0.70;;
53261;SDS011;39658;51.090;-1.786;2024-03-17T12:50:14;3.90;;;0.98;;
53261;SDS011;39658;51.090;-1.786;2024-03-17T12:52:39;2.95;;;0.85;;
53261;SDS011;39658;51.090;-1.786;2024-03-17T12:55:08;2.47;;;0.68;;
53261;SDS011;39658;51.090;-1.786;2024-03-17T12:58:04;3.72;;;1.40;;
53261;SDS011;39658;51.090;-1.786;2024-03-17T13:00:56;3.55;;;1.30;;
53261;SDS011;39658;51.090;-1.786;2024-03-17T13:03:24;2.55;;;1.38;;
53261;SDS011;39658;51.090;-1.786;2024-03-17T13:05:52;2.95;;;1.02;;
53261;SDS011;39658;51.090;-1.786;2024-03-17T13:08:18;2.80;;;1.25;;
53261;SDS011;39658;51.090;-1.786;2024-03-17T13:10:47;2.85;;;0.73;;
53261;SDS011;39658;51.090;-1.786;2024-03-17T13:13:13;1.65;;;0.60;;
53261;SDS011;39658;51.090;-1.786;2024-03-17T13:15:42;3.22;;;0.73;;
53261;SDS011;39658;51.090;-1.786;2024-03-17T13:18:11;2.05;;;0.40;;
53261;SDS011;39658;51.090;-1.786;2024-03-17T13:20:43;4.13;;;0.65;;
53261;SDS011;39658;51.090;-1.786;2024-03-17T13:23:10;3.75;;;0.80;;
53261;SDS011;39658;51.090;-1.786;2024-03-17T13:25:37;3.05;;;1.02;;
53261;SDS011;39658;51.090;-1.786;2024-03-17T13:28:05;2.65;;;1.23;;
53261;SDS011;39658;51.090;-1.786;2024-03-17T13:30:33;1.35;;;0.60;;
53261;SDS011;39658;51.090;-1.786;2024-03-17T13:33:01;5.38;;;1.35;;
53261;SDS011;39658;51.090;-1.786;2024-03-17T13:35:33;3.08;;;0.63;;
53261;SDS011;39658;51.090;-1.786;2024-03-17T13:38:03;5.70;;;1.13;;
53261;SDS011;39658;51.090;-1.786;2024-03-17T13:40:32;8.73;;;2.03;;
53261;SDS011;39658;51.090;-1.786;2024-03-17T13:42:59;6.97;;;1.00;;
53261;SDS011;39658;51.090;-1.786;2024-03-17T13:45:27;3.40;;;0.90;;
53261;SDS011;39658;51.090;-1.786;2024-03-17T13:47:57;8.40;;;1.33;;
53261;SDS011;39658;51.090;-1.786;2024-03-17T13:50:25;7.72;;;1.40;;
53261;SDS011;39658;51.090;-1.786;2024-03-17T13:52:52;5.10;;;2.05;;
53261;SDS011;39658;51.090;-1.786;2024-03-17T13:55:20;8.75;;;1.77;;
53261;SDS011;39658;51.090;-1.786;2024-03-17T13:57:49;6.15;;;1.20;;
53261;SDS011;39658;51.090;-1.786;2024-03-17T14:00:18;7.70;;;1.40;;
53261;SDS011;39658;51.090;-1.786;2024-03-17T14:02:48;15.30;;;1.65;;
53261;SDS011;39658;51.090;-1.786;2024-03-17T14:05:16;2.67;;;0.77;;
53261;SDS011;39658;51.090;-1.786;2024-03-17T14:07:43;7.97;;;1.58;;
53261;SDS011;39658;51.090;-1.786;2024-03-17T14:10:11;10.95;;;2.10;;
53261;SDS011;39658;51.090;-1.786;2024-03-17T14:12:39;5.97;;;1.58;;
53261;SDS011;39658;51.090;-1.786;2024-03-17T14:15:06;7.18;;;1.58;;
53261;SDS011;39658;51.090;-1.786;2024-03-17T14:17:35;10.60;;;2.05;;
53261;SDS011;39658;51.090;-1.786;2024-03-17T14:20:04;10.75;;;1.20;;
53261;SDS011;39658;51.090;-1.786;2024-03-17T14:22:34;5.65;;;1.10;;
53261;SDS011;39658;51.090;-1.786;2024-03-17T14:25:01;8.93;;;1.60;;
53261;SDS011;39658;51.090;-1.786;2024-03-17T14:27:28;6.28;;;1.50;;
53261;SDS011;39658;51.090;-1.786;2024-03-17T14:29:55;7.88;;;1.33;;
53261;SDS011;39658;51.090;-1.786;2024-03-17T14:32:21;6.45;;;1.23;;
53261;SDS011;39658;51.090;-1.786;2024-03-17T14:34:48;7.10;;;1.40;;
53261;SDS011;39658;51.090;-1.786;2024-03-17T14:37:16;7.03;;;0.88;;